createdAt,value
2023-03-29T00:01:51.991Z,101345.14
2023-03-29T00:05:23.124Z,101343.95
2023-03-29T00:08:54.157Z,101343.88
2023-03-29T00:12:21.424Z,101339.04
2023-03-29T00:15:48.403Z,101336.33
2023-03-29T00:19:15.816Z,101334.97
2023-03-29T00:22:46.650Z,101335.84
2023-03-29T00:26:13.917Z,101336.59
2023-03-29T00:29:41.134Z,101335.50
2023-03-29T00:33:08.704Z,101326.50
2023-03-29T00:36:35.859Z,101326.89
2023-03-29T00:40:04.897Z,101322.80
2023-03-29T00:43:32.252Z,101317.99
2023-03-29T00:47:00.046Z,101317.85
2023-03-29T00:50:30.892Z,101312.47
2023-03-29T00:54:01.534Z,101312.00
2023-03-29T00:57:30.749Z,101306.98
2023-03-29T01:01:05.060Z,101303.58
2023-03-29T01:04:37.831Z,101298.95
2023-03-29T01:08:08.131Z,101298.24
2023-03-29T01:11:39.917Z,101291.36
2023-03-29T01:15:11.268Z,101285.73
2023-03-29T01:18:39.834Z,101286.05
2023-03-29T01:22:19.293Z,101291.27
2023-03-29T01:25:55.430Z,101286.59
2023-03-29T01:29:29.018Z,101288.63
2023-03-29T01:33:00.343Z,101291.00
2023-03-29T01:36:35.060Z,101286.73
2023-03-29T01:40:05.186Z,101284.72
2023-03-29T01:43:37.567Z,101278.73
2023-03-29T01:47:13.412Z,101273.33
2023-03-29T01:50:48.872Z,101271.35
2023-03-29T01:54:21.051Z,101267.48
2023-03-29T01:57:54.176Z,101260.83
2023-03-29T02:01:27.155Z,101264.38
2023-03-29T02:04:57.739Z,101258.48
2023-03-29T02:08:25.854Z,101256.35
2023-03-29T02:11:54.774Z,101254.34
2023-03-29T02:15:23.580Z,101255.05
2023-03-29T02:18:54.267Z,101252.30
2023-03-29T02:22:28.573Z,101252.08
2023-03-29T02:25:57.853Z,101250.63
2023-03-29T02:29:26.286Z,101247.52
2023-03-29T02:32:59.575Z,101240.02
2023-03-29T02:36:32.204Z,101234.60
2023-03-29T02:40:00.796Z,101228.52
2023-03-29T02:43:30.269Z,101227.73
2023-03-29T02:47:02.274Z,101227.75
2023-03-29T02:50:35.531Z,101224.98
2023-03-29T02:54:07.012Z,101219.27
2023-03-29T02:57:35.693Z,101211.44
2023-03-29T03:01:05.322Z,101206.91
2023-03-29T03:04:34.210Z,101204.08
2023-03-29T03:08:02.772Z,101198.36
2023-03-29T03:11:29.992Z,101199.83
2023-03-29T03:14:57.464Z,101197.27
2023-03-29T03:18:24.616Z,101198.99
2023-03-29T03:21:52.195Z,101195.16
2023-03-29T03:25:21.270Z,101194.54
2023-03-29T03:28:48.995Z,101196.60
2023-03-29T03:32:43.659Z,101194.08
2023-03-29T03:36:37.172Z,101197.19
2023-03-29T03:40:05.725Z,101193.30
2023-03-29T03:43:33.903Z,101191.50
2023-03-29T03:47:01.177Z,101189.17
2023-03-29T03:50:28.278Z,101188.70
2023-03-29T03:53:55.668Z,101183.10
2023-03-29T03:57:45.775Z,101186.50
2023-03-29T04:01:14.879Z,101184.73
2023-03-29T04:04:46.370Z,101187.40
2023-03-29T04:08:17.708Z,101185.36
2023-03-29T04:12:14.404Z,101182.27
2023-03-29T04:15:41.875Z,101179.95
2023-03-29T04:19:09.941Z,101179.74
2023-03-29T04:22:37.163Z,101178.58
2023-03-29T04:26:04.539Z,101178.37
2023-03-29T04:29:57.988Z,101177.17
2023-03-29T04:33:37.584Z,101174.86
2023-03-29T04:37:10.694Z,101174.06
2023-03-29T04:40:40.378Z,101171.95
2023-03-29T04:44:14.346Z,101173.09
2023-03-29T04:47:42.137Z,101172.37
2023-03-29T04:51:15.180Z,101167.26
2023-03-29T04:54:45.833Z,101161.00
2023-03-29T04:58:30.221Z,101155.36
2023-03-29T05:02:00.963Z,101147.42
2023-03-29T05:05:28.533Z,101142.63
2023-03-29T05:08:56.426Z,101145.33
2023-03-29T05:12:28.351Z,101148.67
2023-03-29T05:15:57.327Z,101139.98
2023-03-29T05:19:25.491Z,101136.59
2023-03-29T05:22:53.311Z,101133.02
2023-03-29T05:26:59.648Z,101130.59
2023-03-29T05:30:27.056Z,101122.24
2023-03-29T05:34:18.736Z,101125.55
2023-03-29T05:37:49.923Z,101124.57
2023-03-29T05:41:18.670Z,101127.13
2023-03-29T05:45:13.180Z,101119.92
2023-03-29T05:48:40.528Z,101120.32
2023-03-29T05:52:08.030Z,101119.36
2023-03-29T05:55:35.968Z,101120.05
2023-03-29T05:59:03.068Z,101113.89
2023-03-29T06:02:30.288Z,101108.14
2023-03-29T06:06:03.887Z,101100.61
2023-03-29T06:09:32.141Z,101092.84
2023-03-29T06:13:02.495Z,101089.28
2023-03-29T06:16:32.540Z,101083.54
2023-03-29T06:20:00.143Z,101082.58
2023-03-29T06:23:28.353Z,101086.00
2023-03-29T06:26:56.521Z,101089.50
2023-03-29T06:30:23.906Z,101095.73
2023-03-29T06:33:53.302Z,101093.06
2023-03-29T06:37:54.594Z,101094.38
2023-03-29T06:41:30.636Z,101090.28
2023-03-29T06:45:07.821Z,101091.33
2023-03-29T06:48:38.638Z,101088.69
2023-03-29T06:52:07.844Z,101086.98
2023-03-29T06:55:36.125Z,101082.69
2023-03-29T06:59:19.229Z,101082.44
2023-03-29T07:03:01.626Z,101087.39
2023-03-29T07:06:28.779Z,101079.25
2023-03-29T07:09:57.642Z,101072.61
2023-03-29T07:13:44.418Z,101069.75
2023-03-29T07:17:13.872Z,101073.59
2023-03-29T07:20:42.628Z,101069.28
2023-03-29T07:24:10.290Z,101068.48
2023-03-29T07:27:38.224Z,101074.05
2023-03-29T07:31:11.121Z,101080.83
2023-03-29T07:34:46.281Z,101084.02
2023-03-29T07:38:20.623Z,101082.91
2023-03-29T07:42:01.089Z,101078.14
2023-03-29T07:45:29.836Z,101074.85
2023-03-29T07:49:03.024Z,101070.84
2023-03-29T07:52:30.226Z,101069.92
2023-03-29T07:56:00.339Z,101065.52
2023-03-29T07:59:36.194Z,101065.52
2023-03-29T08:03:09.424Z,101058.57
2023-03-29T08:06:36.770Z,101054.52
2023-03-29T08:10:04.591Z,101052.04
2023-03-29T08:13:51.506Z,101051.63
2023-03-29T08:17:21.399Z,101049.84
2023-03-29T08:20:51.072Z,101046.36
2023-03-29T08:24:20.807Z,101043.08
2023-03-29T08:27:51.484Z,101039.30
2023-03-29T08:31:28.760Z,101036.99
2023-03-29T08:34:56.492Z,101032.78
2023-03-29T08:38:28.821Z,101031.69
2023-03-29T08:42:13.303Z,101031.92
2023-03-29T08:45:49.627Z,101029.88
2023-03-29T08:49:20.041Z,101028.11
2023-03-29T08:52:52.881Z,101025.46
2023-03-29T08:56:46.804Z,101030.17
2023-03-29T09:00:33.772Z,101027.16
2023-03-29T09:04:09.053Z,101023.79
2023-03-29T09:07:50.281Z,101019.48
2023-03-29T09:11:34.026Z,101017.51
2023-03-29T09:15:11.803Z,101016.16
2023-03-29T09:18:52.476Z,101011.88
2023-03-29T09:22:32.576Z,101004.36
2023-03-29T09:26:07.069Z,100997.04
2023-03-29T09:30:19.355Z,100994.91
2023-03-29T09:33:59.272Z,100988.28
2023-03-29T09:37:41.299Z,100984.98
2023-03-29T09:41:16.202Z,100985.26
2023-03-29T09:44:48.785Z,100983.11
2023-03-29T09:48:21.015Z,100976.36
2023-03-29T09:51:55.862Z,100975.98
2023-03-29T09:55:27.642Z,100973.21
2023-03-29T09:59:07.369Z,100969.94
2023-03-29T10:02:35.579Z,100964.52
2023-03-29T10:06:05.302Z,100955.77
2023-03-29T10:09:34.244Z,100950.70
2023-03-29T10:13:23.151Z,100940.88
2023-03-29T10:16:57.754Z,100933.41
2023-03-29T10:20:28.237Z,100929.27
2023-03-29T10:24:01.360Z,100926.09
2023-03-29T10:27:30.237Z,100927.06
2023-03-29T10:31:01.270Z,100920.37
2023-03-29T10:34:28.604Z,100919.42
2023-03-29T10:37:59.441Z,100918.69
2023-03-29T10:41:29.758Z,100917.80
2023-03-29T10:44:59.118Z,100906.93
2023-03-29T10:48:32.263Z,100908.06
2023-03-29T10:51:59.386Z,100903.76
2023-03-29T10:55:33.614Z,100902.39
2023-03-29T10:59:18.058Z,100900.63
2023-03-29T11:03:19.505Z,100897.50
2023-03-29T11:06:53.537Z,100895.23
2023-03-29T11:10:38.441Z,100882.84
2023-03-29T11:14:10.509Z,100872.30
2023-03-29T11:17:53.558Z,100864.77
2023-03-29T11:21:28.606Z,100864.61
2023-03-29T11:25:11.478Z,100863.17
2023-03-29T11:28:46.617Z,100858.17
2023-03-29T11:32:23.406Z,100847.13
2023-03-29T11:36:00.217Z,100843.14
2023-03-29T11:39:41.806Z,100841.15
2023-03-29T11:43:14.262Z,100831.62
2023-03-29T11:46:46.867Z,100830.91
2023-03-29T11:50:22.808Z,100825.23
2023-03-29T11:53:57.549Z,100817.92
2023-03-29T11:57:27.927Z,100812.98
2023-03-29T12:00:59.678Z,100804.92
2023-03-29T12:04:32.376Z,100797.91
2023-03-29T12:08:06.284Z,100795.05
2023-03-29T12:11:39.195Z,100794.27
2023-03-29T12:15:12.127Z,100785.05
2023-03-29T12:18:45.333Z,100778.66
2023-03-29T12:22:12.838Z,100777.52
2023-03-29T12:25:54.592Z,100768.42
2023-03-29T12:29:38.137Z,100770.42
2023-03-29T12:33:22.496Z,100766.98
2023-03-29T12:37:42.489Z,100764.77
2023-03-29T12:41:29.349Z,100762.98
2023-03-29T12:45:23.143Z,100757.46
2023-03-29T12:48:54.396Z,100752.30
2023-03-29T12:52:28.299Z,100756.92
2023-03-29T12:56:11.625Z,100751.42
2023-03-29T12:59:44.994Z,100738.57
2023-03-29T13:03:29.781Z,100739.90
2023-03-29T13:07:06.114Z,100739.77
2023-03-29T13:10:41.153Z,100737.39
2023-03-29T13:14:15.623Z,100734.58
2023-03-29T13:17:52.375Z,100727.52
2023-03-29T13:21:27.146Z,100719.44
2023-03-29T13:25:19.082Z,100719.59
2023-03-29T13:29:02.395Z,100708.91
2023-03-29T13:32:48.585Z,100710.20
2023-03-29T13:36:25.793Z,100709.45
2023-03-29T13:39:55.325Z,100705.38
2023-03-29T13:43:30.883Z,100702.95
2023-03-29T13:47:29.556Z,100697.43
2023-03-29T13:51:01.070Z,100690.70
2023-03-29T13:54:33.727Z,100691.39
2023-03-29T13:58:05.273Z,100687.33
2023-03-29T14:01:40.399Z,100682.40
2023-03-29T14:05:11.929Z,100681.91
2023-03-29T14:08:43.436Z,100677.24
2023-03-29T14:12:13.991Z,100674.21
2023-03-29T14:15:50.718Z,100672.72
2023-03-29T14:19:20.573Z,100672.06
2023-03-29T14:22:48.459Z,100666.94
2023-03-29T14:26:19.502Z,100666.63
2023-03-29T14:29:49.412Z,100660.95
2023-03-29T14:33:25.932Z,100657.73
2023-03-29T14:36:54.307Z,100649.67
2023-03-29T14:40:22.900Z,100644.27
2023-03-29T14:43:51.655Z,100640.81
2023-03-29T14:47:25.624Z,100636.44
2023-03-29T14:50:54.176Z,100634.84
2023-03-29T14:54:24.080Z,100632.75
2023-03-29T14:57:50.020Z,100632.18
2023-03-29T15:01:21.538Z,100627.85
2023-03-29T15:04:58.847Z,100621.75
2023-03-29T15:08:34.013Z,100620.36
2023-03-29T15:12:03.212Z,100614.95
2023-03-29T15:15:32.101Z,100609.64
2023-03-29T15:19:02.676Z,100609.64
2023-03-29T15:22:35.884Z,100599.45
2023-03-29T15:26:14.360Z,100592.70
2023-03-29T15:29:43.011Z,100589.88
2023-03-29T15:33:24.863Z,100594.89
2023-03-29T15:36:52.071Z,100593.95
2023-03-29T15:40:21.770Z,100595.84
2023-03-29T15:43:48.815Z,100597.41
2023-03-29T15:47:16.955Z,100598.92
2023-03-29T15:50:46.824Z,100598.06
2023-03-29T15:54:14.259Z,100597.65
2023-03-29T15:57:42.036Z,100594.30
2023-03-29T16:01:19.310Z,100591.73
2023-03-29T16:04:46.675Z,100600.98
2023-03-29T16:08:15.354Z,100611.84
2023-03-29T16:11:43.949Z,100617.64
2023-03-29T16:15:28.173Z,100618.64
2023-03-29T16:18:55.206Z,100609.39
2023-03-29T16:22:22.967Z,100606.98
2023-03-29T16:25:49.977Z,100611.34
2023-03-29T16:29:17.480Z,100611.67
2023-03-29T16:32:45.948Z,100619.67
2023-03-29T16:36:13.961Z,100622.63
2023-03-29T16:39:40.986Z,100624.41
2023-03-29T16:43:08.090Z,100618.91
2023-03-29T16:46:35.295Z,100616.02
2023-03-29T16:50:03.254Z,100619.04
2023-03-29T16:53:30.735Z,100615.83
2023-03-29T16:56:58.435Z,100599.56
2023-03-29T17:00:26.140Z,100590.53
2023-03-29T17:03:53.391Z,100590.70
2023-03-29T17:07:20.663Z,100593.46
2023-03-29T17:10:48.108Z,100595.88
2023-03-29T17:14:15.494Z,100588.66
2023-03-29T17:17:42.717Z,100587.60
2023-03-29T17:21:10.676Z,100589.27
2023-03-29T17:24:37.699Z,100585.88
2023-03-29T17:28:05.383Z,100582.83
2023-03-29T17:31:35.182Z,100599.41
2023-03-29T17:35:00.791Z,100600.75
2023-03-29T17:38:29.754Z,100591.20
2023-03-29T17:41:57.106Z,100588.10
2023-03-29T17:45:24.141Z,100592.52
2023-03-29T17:48:52.016Z,100594.71
2023-03-29T17:52:19.425Z,100597.46
2023-03-29T17:55:46.406Z,100596.70
2023-03-29T17:59:13.522Z,100601.19
2023-03-29T18:02:41.491Z,100596.46
2023-03-29T18:06:09.946Z,100598.33
2023-03-29T18:09:38.072Z,100596.87
2023-03-29T18:13:05.619Z,100603.55
2023-03-29T18:16:33.081Z,100605.13
2023-03-29T18:20:01.331Z,100606.85
2023-03-29T18:23:28.756Z,100607.81
2023-03-29T18:26:57.890Z,100609.30
2023-03-29T18:30:25.095Z,100610.63
2023-03-29T18:34:00.986Z,100610.98
2023-03-29T18:37:31.044Z,100609.59
2023-03-29T18:40:59.420Z,100612.06
2023-03-29T18:44:28.240Z,100616.11
2023-03-29T18:47:56.325Z,100612.18
2023-03-29T18:51:26.141Z,100612.44
2023-03-29T18:54:52.076Z,100610.27
2023-03-29T18:58:23.981Z,100609.53
2023-03-29T19:01:53.990Z,100606.55
2023-03-29T19:05:23.028Z,100602.19
2023-03-29T19:08:51.461Z,100604.63
2023-03-29T19:12:20.106Z,100596.13
2023-03-29T19:15:49.879Z,100596.11
2023-03-29T19:19:18.641Z,100591.39
2023-03-29T19:22:45.825Z,100595.48
2023-03-29T19:26:13.389Z,100592.80
2023-03-29T19:29:41.067Z,100592.54
2023-03-29T19:33:08.090Z,100590.36
2023-03-29T19:36:35.711Z,100584.88
2023-03-29T19:40:06.814Z,100587.77
2023-03-29T19:43:34.033Z,100589.80
2023-03-29T19:47:01.166Z,100593.60
2023-03-29T19:50:28.357Z,100594.27
2023-03-29T19:53:55.857Z,100587.62
2023-03-29T19:57:23.311Z,100590.52
2023-03-29T20:00:50.921Z,100594.46
2023-03-29T20:04:18.490Z,100588.89
2023-03-29T20:07:45.694Z,100585.90
2023-03-29T20:11:13.736Z,100588.63
2023-03-29T20:14:43.355Z,100586.88
2023-03-29T20:18:09.049Z,100583.73
2023-03-29T20:21:37.486Z,100583.36
2023-03-29T20:25:04.994Z,100578.28
2023-03-29T20:28:32.131Z,100571.19
2023-03-29T20:31:59.442Z,100571.38
2023-03-29T20:35:27.646Z,100572.06
2023-03-29T20:38:56.467Z,100564.96
2023-03-29T20:42:24.713Z,100562.52
2023-03-29T20:45:53.904Z,100559.38
2023-03-29T20:49:26.384Z,100555.38
2023-03-29T20:52:55.235Z,100552.42
2023-03-29T20:56:26.142Z,100555.03
2023-03-29T20:59:53.566Z,100559.86
2023-03-29T21:03:21.044Z,100560.20
2023-03-29T21:06:49.730Z,100554.58
2023-03-29T21:10:18.208Z,100549.52
2023-03-29T21:13:45.311Z,100545.77
2023-03-29T21:17:12.605Z,100542.38
2023-03-29T21:20:40.557Z,100537.55
2023-03-29T21:24:08.714Z,100532.50
2023-03-29T21:27:35.702Z,100531.81
2023-03-29T21:31:07.040Z,100527.48
2023-03-29T21:34:34.233Z,100531.70
2023-03-29T21:38:01.262Z,100527.52
2023-03-29T21:41:28.264Z,100525.27
2023-03-29T21:44:55.856Z,100517.42
2023-03-29T21:48:22.870Z,100513.07
2023-03-29T21:51:49.900Z,100507.15
2023-03-29T21:55:18.103Z,100501.20
2023-03-29T21:58:45.548Z,100496.34
2023-03-29T22:02:12.694Z,100496.48
2023-03-29T22:05:39.867Z,100490.80
2023-03-29T22:09:07.061Z,100485.45
2023-03-29T22:12:37.165Z,100482.52
2023-03-29T22:16:05.505Z,100481.35
2023-03-29T22:19:32.716Z,100476.89
2023-03-29T22:22:59.862Z,100476.23
2023-03-29T22:26:29.231Z,100476.30
2023-03-29T22:29:56.488Z,100471.66
2023-03-29T22:33:23.625Z,100462.12
2023-03-29T22:36:51.800Z,100465.94
2023-03-29T22:40:19.297Z,100464.89
2023-03-29T22:43:46.964Z,100458.80
2023-03-29T22:47:14.166Z,100463.30
2023-03-29T22:50:43.000Z,100463.27
2023-03-29T22:54:10.326Z,100468.10
2023-03-29T22:57:37.510Z,100466.35
2023-03-29T23:01:05.229Z,100466.66
2023-03-29T23:04:32.926Z,100461.45
2023-03-29T23:08:00.109Z,100456.67
2023-03-29T23:11:27.724Z,100446.94
2023-03-29T23:14:55.970Z,100443.08
2023-03-29T23:18:24.092Z,100440.80
2023-03-29T23:21:52.850Z,100442.87
2023-03-29T23:25:19.975Z,100439.73
2023-03-29T23:28:47.051Z,100437.64
2023-03-29T23:32:15.661Z,100437.99
2023-03-29T23:35:43.756Z,100438.53
2023-03-29T23:39:10.732Z,100437.17
2023-03-29T23:42:39.112Z,100435.86
2023-03-29T23:46:08.185Z,100434.31
2023-03-29T23:49:36.311Z,100429.70
2023-03-29T23:53:03.368Z,100426.06
2023-03-29T23:56:30.580Z,100418.98
